Time;durP1;ratioP1;P1;durP2;ratioP2;P2;SDS_P1;SDS_P2;PMS_P1;PMS_P2;Temp;Humidity;BMP_temperature;BMP_pressure;BME280_temperature;BME280_humidity;BME280_pressure;Samples;Min_cycle;Max_cycle;Signal;HPM_P1;HPM_P2
2022/03/05 00:02:03;;;;;;;6.50;4.78;;;1.10;76.70;;;;;;5115840;28;20054;-78
2022/03/05 00:04:29;;;;;;;7.85;5.15;;;1.10;77.40;;;;;;5092959;28;20537;-82
2022/03/05 00:06:55;;;;;;;12.00;6.53;;;1.10;77.70;;;;;;5113541;28;20084;-78
2022/03/05 00:09:20;;;;;;;12.35;5.28;;;1.10;78.10;;;;;;5116114;28;20024;-78
2022/03/05 00:11:46;;;;;;;15.32;5.68;;;1.10;78.50;;;;;;5115798;28;20047;-79
2022/03/05 00:14:12;;;;;;;14.82;5.43;;;1.10;78.70;;;;;;5117145;28;20039;-79
2022/03/05 00:16:38;;;;;;;10.93;5.82;;;1.10;79.10;;;;;;5118834;28;20104;-79
2022/03/05 00:19:04;;;;;;;11.98;5.53;;;1.10;79.30;;;;;;5117706;28;20034;-80
2022/03/05 00:21:30;;;;;;;8.63;5.10;;;1.10;79.40;;;;;;5113988;28;20028;-79
2022/03/05 00:23:56;;;;;;;10.95;4.25;;;1.10;79.70;;;;;;5095734;28;20027;-79
2022/03/05 00:26:22;;;;;;;12.27;5.15;;;1.10;79.80;;;;;;5114801;28;20114;-79
2022/03/05 00:28:48;;;;;;;9.77;4.63;;;1.10;80.10;;;;;;5115268;28;20508;-79
2022/03/05 00:31:14;;;;;;;12.32;5.03;;;1.10;80.40;;;;;;5113626;28;20600;-79
2022/03/05 00:33:40;;;;;;;9.27;4.40;;;1.00;80.80;;;;;;5114071;28;20092;-80
2022/03/05 00:36:06;;;;;;;8.68;4.68;;;1.00;81.00;;;;;;5115261;28;20065;-78
2022/03/05 00:38:32;;;;;;;7.33;4.43;;;1.00;81.10;;;;;;5115267;28;20431;-80
2022/03/05 00:40:58;;;;;;;10.10;4.32;;;1.00;81.20;;;;;;5096356;28;20264;-80
2022/03/05 00:43:24;;;;;;;10.20;5.07;;;1.00;81.70;;;;;;5114613;28;20106;-80
2022/03/05 00:45:49;;;;;;;9.02;4.97;;;1.00;81.80;;;;;;5082634;28;20024;-80
2022/03/05 00:48:15;;;;;;;7.05;3.45;;;1.00;82.00;;;;;;5076704;28;20031;-79
2022/03/05 00:50:41;;;;;;;7.60;4.25;;;1.00;82.10;;;;;;5098770;28;20020;-80
2022/03/05 00:53:10;;;;;;;7.95;4.20;;;1.00;82.40;;;;;;5116335;28;20114;-79
2022/03/05 00:55:36;;;;;;;7.70;4.47;;;1.00;82.50;;;;;;5113813;28;20020;-80
2022/03/05 00:58:03;;;;;;;8.30;4.18;;;1.00;82.90;;;;;;5114251;28;20016;-81
2022/03/05 01:00:29;;;;;;;5.43;3.63;;;1.00;82.90;;;;;;5113150;28;20028;-79
2022/03/05 01:02:54;;;;;;;7.47;4.63;;;1.00;83.00;;;;;;5103175;28;20055;-78
2022/03/05 01:05:20;;;;;;;7.75;3.78;;;1.00;83.30;;;;;;5112866;28;20054;-80
2022/03/05 01:07:46;;;;;;;6.45;3.90;;;1.00;83.50;;;;;;5094631;28;20024;-80
2022/03/05 01:10:12;;;;;;;5.78;3.83;;;1.00;83.60;;;;;;5096005;28;20051;-78
2022/03/05 01:12:37;;;;;;;7.07;3.95;;;1.00;83.90;;;;;;5078929;28;20051;-82
2022/03/05 01:15:06;;;;;;;5.97;3.40;;;1.00;84.70;;;;;;5094912;28;20028;-82
2022/03/05 01:17:31;;;;;;;4.90;3.30;;;1.00;84.00;;;;;;5094202;28;20477;-81
2022/03/05 01:19:57;;;;;;;6.53;3.50;;;1.00;84.60;;;;;;5094870;28;20035;-79
2022/03/05 01:22:23;;;;;;;5.07;2.85;;;1.00;84.00;;;;;;5113779;28;20028;-80
2022/03/05 01:24:49;;;;;;;4.82;2.80;;;1.00;83.80;;;;;;5095450;28;20112;-78
2022/03/05 01:27:15;;;;;;;5.00;2.63;;;1.00;83.30;;;;;;5093938;28;20403;-80
2022/03/05 01:29:41;;;;;;;4.63;3.42;;;1.00;82.90;;;;;;5093938;28;20024;-82
2022/03/05 01:32:07;;;;;;;4.97;2.90;;;1.00;82.80;;;;;;5075647;28;20071;-80
2022/03/05 01:34:33;;;;;;;3.70;2.78;;;1.00;83.00;;;;;;5093843;28;20043;-81
2022/03/05 01:36:59;;;;;;;4.90;2.78;;;1.00;83.20;;;;;;5111419;28;20020;-80
2022/03/05 01:39:26;;;;;;;7.13;3.03;;;1.00;83.30;;;;;;5115713;28;20059;-80
2022/03/05 01:41:55;;;;;;;3.67;2.33;;;1.00;83.60;;;;;;5128533;28;20039;-80
2022/03/05 01:44:22;;;;;;;4.50;3.03;;;1.00;82.80;;;;;;5128581;28;20400;-83
2022/03/05 01:46:47;;;;;;;3.38;1.95;;;1.00;82.40;;;;;;5116424;28;20023;-79
2022/03/05 01:49:13;;;;;;;4.78;3.08;;;0.90;82.20;;;;;;5115072;28;20031;-80
2022/03/05 01:51:40;;;;;;;4.55;2.25;;;0.90;82.20;;;;;;5110205;28;20084;-79
2022/03/05 01:54:07;;;;;;;10.67;2.07;;;0.90;82.10;;;;;;5111165;28;20038;-80
2022/03/05 01:56:33;;;;;;;3.92;1.52;;;1.00;81.30;;;;;;5106019;28;20031;-79
2022/03/05 01:59:00;;;;;;;4.28;2.65;;;1.00;79.40;;;;;;5107365;28;20032;-79
2022/03/05 02:01:27;;;;;;;2.47;1.80;;;1.00;78.70;;;;;;5093105;28;20028;-78
2022/03/05 02:03:54;;;;;;;2.60;1.85;;;1.00;78.20;;;;;;5104136;28;20030;-78
2022/03/05 02:06:20;;;;;;;1.97;1.20;;;1.00;77.60;;;;;;5113524;28;20024;-77
2022/03/05 02:08:47;;;;;;;1.70;1.30;;;1.00;77.10;;;;;;5095980;28;20055;-80
2022/03/05 02:11:12;;;;;;;3.00;1.92;;;1.00;76.80;;;;;;5113714;28;20049;-79
2022/03/05 02:13:38;;;;;;;2.42;1.50;;;1.00;77.00;;;;;;5096410;28;20040;-79
2022/03/05 02:16:04;;;;;;;2.97;1.63;;;1.00;77.20;;;;;;5115595;28;20031;-76
2022/03/05 02:18:31;;;;;;;2.10;1.50;;;1.00;77.50;;;;;;5119751;28;20044;-78
2022/03/05 02:20:57;;;;;;;3.75;2.13;;;1.00;77.70;;;;;;5102224;28;20118;-78
2022/03/05 02:23:23;;;;;;;4.13;1.95;;;1.10;78.20;;;;;;5119745;28;20024;-76
2022/03/05 02:25:57;;;;;;;4.05;2.17;;;1.10;78.50;;;;;;5110243;28;20473;-78
2022/03/05 02:28:24;;;;;;;3.05;2.05;;;1.10;79.00;;;;;;5098982;28;20034;-79
2022/03/05 02:30:51;;;;;;;3.85;1.98;;;1.10;79.40;;;;;;5113542;28;20430;-76
2022/03/05 02:33:17;;;;;;;4.35;2.15;;;1.10;79.80;;;;;;5113113;28;20115;-76
2022/03/05 02:35:44;;;;;;;2.78;1.98;;;1.10;80.20;;;;;;5113883;28;20024;-78
2022/03/05 02:38:15;;;;;;;3.22;2.05;;;1.10;80.60;;;;;;5113307;28;20400;-77
2022/03/05 02:40:42;;;;;;;3.08;2.05;;;1.10;81.10;;;;;;5111418;28;20027;-77
2022/03/05 02:43:09;;;;;;;3.15;1.88;;;1.00;81.30;;;;;;5098898;28;20031;-78
2022/03/05 02:45:35;;;;;;;4.75;2.40;;;1.00;81.80;;;;;;5092570;28;20024;-77
2022/03/05 02:48:03;;;;;;;3.45;2.00;;;1.00;82.10;;;;;;5092384;28;20151;-77
2022/03/05 02:50:30;;;;;;;4.25;2.20;;;1.00;82.20;;;;;;5092768;28;20019;-78
2022/03/05 02:52:55;;;;;;;3.03;2.47;;;1.00;82.40;;;;;;5094258;28;20101;-77
2022/03/05 02:55:21;;;;;;;4.18;2.25;;;1.00;82.50;;;;;;5113298;28;20016;-78
2022/03/05 02:57:47;;;;;;;1.77;1.67;;;1.00;82.30;;;;;;5112620;28;20042;-77
2022/03/05 03:00:13;;;;;;;3.55;2.03;;;1.00;82.30;;;;;;5101476;28;20024;-78
2022/03/05 03:02:39;;;;;;;4.25;2.13;;;0.90;82.10;;;;;;5113430;28;20023;-78
2022/03/05 03:05:06;;;;;;;3.00;2.00;;;0.90;82.00;;;;;;5113102;28;20156;-79
2022/03/05 03:07:32;;;;;;;2.42;1.75;;;0.90;81.40;;;;;;5113452;28;20087;-75
2022/03/05 03:09:58;;;;;;;2.95;1.80;;;0.80;81.50;;;;;;5113961;28;20050;-76
2022/03/05 03:12:27;;;;;;;5.03;1.60;;;0.80;81.30;;;;;;5112400;28;20052;-78
2022/03/05 03:14:53;;;;;;;5.22;1.55;;;0.80;80.90;;;;;;5112453;28;20488;-77
2022/03/05 03:17:19;;;;;;;3.13;1.40;;;0.70;80.10;;;;;;5112803;28;20031;-77
2022/03/05 03:19:45;;;;;;;2.53;1.52;;;0.70;79.90;;;;;;5112472;28;20106;-75
2022/03/05 03:22:11;;;;;;;4.22;1.80;;;0.70;79.40;;;;;;5112538;28;20024;-77
2022/03/05 03:24:37;;;;;;;1.92;1.20;;;0.70;79.40;;;;;;5112396;28;20365;-78
2022/03/05 03:27:03;;;;;;;2.60;2.00;;;0.70;78.50;;;;;;5114448;28;20020;-78
2022/03/05 03:29:29;;;;;;;1.52;1.40;;;0.80;78.20;;;;;;5108733;28;20101;-78
2022/03/05 03:31:54;;;;;;;2.78;1.75;;;0.80;77.30;;;;;;5092384;28;20095;-76
2022/03/05 03:34:20;;;;;;;6.00;1.95;;;0.80;77.30;;;;;;5111557;28;20031;-78
2022/03/05 03:36:46;;;;;;;2.90;2.35;;;0.90;77.30;;;;;;5112212;28;20035;-78
2022/03/05 03:39:12;;;;;;;2.55;1.63;;;0.90;77.50;;;;;;5112356;28;20050;-79
2022/03/05 03:41:38;;;;;;;6.47;1.85;;;0.90;77.70;;;;;;5113399;28;20015;-77
2022/03/05 03:44:04;;;;;;;6.57;2.00;;;0.90;78.30;;;;;;5115802;28;20029;-79
2022/03/05 03:46:30;;;;;;;3.85;2.50;;;0.80;80.80;;;;;;5115468;28;20024;-79
2022/03/05 03:48:56;;;;;;;3.60;2.15;;;0.70;81.30;;;;;;5112343;28;20024;-77
2022/03/05 03:51:25;;;;;;;6.47;2.83;;;0.70;81.90;;;;;;5112917;28;20098;-80
2022/03/05 03:53:51;;;;;;;4.10;2.15;;;0.70;82.20;;;;;;5122460;28;20122;-79
2022/03/05 03:56:17;;;;;;;5.13;3.63;;;0.70;82.50;;;;;;5119105;28;20024;-77
2022/03/05 03:58:43;;;;;;;2.58;2.30;;;0.60;83.40;;;;;;5116007;28;20045;-80
2022/03/05 04:01:09;;;;;;;5.88;2.38;;;0.60;83.40;;;;;;5113005;28;20464;-78
2022/03/05 04:03:34;;;;;;;5.75;2.72;;;0.50;83.60;;;;;;5105454;28;20028;-78
2022/03/05 04:06:00;;;;;;;2.90;2.00;;;0.50;83.80;;;;;;5111939;28;20016;-78
2022/03/05 04:08:41;;;;;;;5.55;2.20;;;0.40;83.50;;;;;;5095540;28;20381;-78
2022/03/05 04:11:10;;;;;;;3.95;2.28;;;0.40;83.40;;;;;;5102899;28;20020;-78
2022/03/05 04:13:36;;;;;;;3.00;2.00;;;0.30;82.80;;;;;;5114839;28;20023;-78
2022/03/05 04:16:02;;;;;;;4.80;2.40;;;0.30;82.60;;;;;;5115236;28;20099;-79
2022/03/05 04:18:28;;;;;;;5.10;1.77;;;0.40;82.70;;;;;;5114911;28;20028;-78
2022/03/05 04:20:53;;;;;;;3.25;2.28;;;0.30;81.80;;;;;;5115600;28;20467;-79
2022/03/05 04:23:19;;;;;;;3.03;2.05;;;0.30;81.40;;;;;;5112455;28;20030;-78
2022/03/05 04:25:45;;;;;;;6.90;1.60;;;0.30;81.40;;;;;;5098298;28;20023;-80
2022/03/05 04:28:11;;;;;;;8.40;2.85;;;0.30;81.40;;;;;;5116032;28;20020;-79
2022/03/05 04:30:37;;;;;;;2.00;1.55;;;0.20;81.20;;;;;;5115803;28;20392;-78
2022/03/05 04:33:03;;;;;;;5.03;1.95;;;0.20;81.00;;;;;;5115426;28;20397;-81
2022/03/05 04:35:28;;;;;;;3.15;1.45;;;0.20;80.70;;;;;;5097002;28;20024;-79
2022/03/05 04:37:54;;;;;;;3.30;1.55;;;0.20;79.70;;;;;;5115813;28;20036;-78
2022/03/05 04:40:21;;;;;;;2.70;1.20;;;0.20;79.30;;;;;;5115261;28;20341;-78
2022/03/05 04:42:47;;;;;;;5.93;1.80;;;0.20;78.70;;;;;;5105430;28;20048;-76
2022/03/05 04:45:14;;;;;;;3.10;1.42;;;0.20;78.60;;;;;;5113583;28;20059;-76
2022/03/05 04:47:40;;;;;;;3.38;1.40;;;0.20;78.00;;;;;;5114977;28;20078;-79
2022/03/05 04:50:07;;;;;;;5.33;1.80;;;0.20;77.60;;;;;;5114705;28;20088;-79
2022/03/05 04:52:33;;;;;;;2.23;1.30;;;0.20;77.20;;;;;;5114436;28;20097;-78
2022/03/05 04:54:59;;;;;;;2.85;1.45;;;0.20;77.10;;;;;;5114773;28;20054;-79
2022/03/05 04:57:24;;;;;;;2.67;1.77;;;0.10;77.50;;;;;;5115067;28;20019;-78
2022/03/05 04:59:51;;;;;;;2.70;1.17;;;0.10;77.40;;;;;;5112831;28;20025;-78
2022/03/05 05:02:17;;;;;;;4.68;1.45;;;0.10;76.90;;;;;;5115260;28;20044;-78
2022/03/05 05:04:43;;;;;;;2.70;2.25;;;0.10;76.80;;;;;;5115413;28;20096;-77
2022/03/05 05:07:09;;;;;;;5.90;1.30;;;0.10;76.90;;;;;;5114510;28;20096;-79
2022/03/05 05:09:35;;;;;;;13.50;1.77;;;0.10;77.00;;;;;;5094233;28;20517;-79
2022/03/05 05:12:01;;;;;;;3.20;1.40;;;0.10;77.30;;;;;;5095057;28;20106;-77
2022/03/05 05:14:26;;;;;;;5.50;1.60;;;0.10;77.50;;;;;;5094165;28;20039;-79
2022/03/05 05:16:52;;;;;;;2.30;1.52;;;0.20;77.60;;;;;;5094641;28;20495;-78
2022/03/05 05:19:24;;;;;;;5.97;2.33;;;0.20;77.60;;;;;;5094474;28;20098;-77
2022/03/05 05:21:51;;;;;;;2.70;1.88;;;0.20;77.80;;;;;;5075734;28;20047;-78
2022/03/05 05:24:18;;;;;;;3.15;1.75;;;0.20;77.80;;;;;;5075918;28;20360;-78
2022/03/05 05:26:44;;;;;;;3.63;1.70;;;0.20;77.50;;;;;;5094553;28;20024;-79
2022/03/05 05:29:10;;;;;;;4.90;1.55;;;0.20;77.60;;;;;;5094055;28;20111;-79
2022/03/05 05:31:36;;;;;;;4.40;2.30;;;0.20;77.80;;;;;;5094135;28;20103;-78
2022/03/05 05:34:02;;;;;;;3.75;1.90;;;0.10;78.10;;;;;;5093735;28;20042;-78
2022/03/05 05:36:27;;;;;;;2.97;1.90;;;0.20;78.60;;;;;;5075487;28;20048;-80
2022/03/05 05:38:53;;;;;;;3.75;2.53;;;0.20;79.10;;;;;;5093312;28;20062;-79
2022/03/05 05:41:19;;;;;;;5.13;2.42;;;0.20;79.20;;;;;;5093286;28;20536;-80
2022/03/05 05:43:45;;;;;;;4.68;2.67;;;0.20;79.40;;;;;;5111287;28;20341;-77
2022/03/05 05:46:12;;;;;;;6.53;2.53;;;0.20;79.80;;;;;;5094874;28;20028;-79
2022/03/05 05:48:37;;;;;;;5.63;2.63;;;0.10;80.20;;;;;;5094155;28;20119;-81
2022/03/05 05:51:04;;;;;;;4.63;2.50;;;0.20;80.80;;;;;;5095317;28;20115;-80
2022/03/05 05:53:30;;;;;;;5.40;2.65;;;0.20;80.80;;;;;;5113800;28;20890;-79
2022/03/05 05:55:56;;;;;;;4.32;2.13;;;0.10;81.00;;;;;;5113772;28;20027;-81
2022/03/05 05:58:22;;;;;;;5.90;2.75;;;0.10;81.00;;;;;;5114469;28;20024;-80
2022/03/05 06:00:48;;;;;;;4.47;2.10;;;0.10;81.30;;;;;;5096586;28;20478;-79
2022/03/05 06:03:15;;;;;;;7.70;2.80;;;0.10;81.10;;;;;;5115254;28;20388;-82
2022/03/05 06:05:41;;;;;;;3.83;2.53;;;0.10;81.20;;;;;;5120688;28;20050;-81
2022/03/05 06:08:07;;;;;;;6.60;2.83;;;0.20;81.50;;;;;;5124372;28;20039;-79
2022/03/05 06:10:32;;;;;;;7.18;2.67;;;0.30;81.20;;;;;;5114630;28;20019;-81
2022/03/05 06:12:58;;;;;;;2.83;2.20;;;0.30;81.20;;;;;;5095666;28;20047;-82
2022/03/05 06:15:24;;;;;;;6.45;2.85;;;0.30;81.10;;;;;;5084340;28;20400;-81
2022/03/05 06:17:50;;;;;;;3.63;2.70;;;0.30;81.20;;;;;;5109174;28;20099;-78
2022/03/05 06:20:16;;;;;;;4.82;2.47;;;0.40;81.20;;;;;;5113128;28;20512;-82
2022/03/05 06:22:42;;;;;;;3.35;2.65;;;0.30;80.90;;;;;;5112451;28;20020;-80
2022/03/05 06:25:08;;;;;;;4.40;2.55;;;0.30;80.70;;;;;;5112729;28;20027;-84
2022/03/05 06:27:34;;;;;;;6.28;3.05;;;0.30;80.90;;;;;;5113952;28;20031;-84
2022/03/05 06:30:00;;;;;;;4.35;2.55;;;0.40;80.90;;;;;;5095483;28;20019;-83
2022/03/05 06:32:27;;;;;;;5.97;2.85;;;0.60;80.50;;;;;;5113678;28;20369;-83
2022/03/05 06:34:54;;;;;;;5.78;3.05;;;0.70;80.20;;;;;;5094327;28;20491;-83
2022/03/05 06:37:23;;;;;;;5.95;2.78;;;0.80;79.20;;;;;;5093795;28;20031;-83
2022/03/05 06:39:50;;;;;;;5.78;2.63;;;0.90;79.00;;;;;;5075545;28;20020;-79
2022/03/05 06:42:16;;;;;;;5.70;3.17;;;1.00;78.60;;;;;;5097743;28;20507;-80
2022/03/05 06:44:42;;;;;;;5.38;3.10;;;0.90;78.30;;;;;;5113280;28;20035;-83
2022/03/05 06:47:08;;;;;;;9.00;3.33;;;0.80;78.30;;;;;;5113738;28;20023;-83
2022/03/05 06:49:34;;;;;;;12.80;3.05;;;0.80;78.50;;;;;;5111646;28;20391;-82
2022/03/05 06:52:00;;;;;;;8.90;2.90;;;0.70;78.60;;;;;;5093177;28;20047;-84
2022/03/05 06:54:26;;;;;;;5.32;3.13;;;0.80;78.60;;;;;;5093146;28;20040;-82
2022/03/05 06:56:52;;;;;;;8.05;2.58;;;0.90;78.40;;;;;;5112004;28;20038;-84
2022/03/05 06:59:18;;;;;;;6.78;3.03;;;1.00;77.70;;;;;;5113890;28;20034;-82
2022/03/05 07:01:44;;;;;;;8.52;2.67;;;1.00;77.50;;;;;;5113449;28;20023;-84
2022/03/05 07:04:10;;;;;;;5.35;2.90;;;0.90;77.80;;;;;;5113868;28;20069;-81
2022/03/05 07:06:37;;;;;;;7.13;2.90;;;0.90;78.10;;;;;;5094236;28;20031;-80
2022/03/05 07:09:04;;;;;;;8.98;2.80;;;0.90;77.40;;;;;;5113190;28;20038;-80
2022/03/05 07:11:30;;;;;;;6.65;3.10;;;0.80;76.90;;;;;;5113130;28;20130;-79
2022/03/05 07:13:56;;;;;;;9.05;3.60;;;0.80;77.10;;;;;;5112856;28;20092;-81
2022/03/05 07:16:21;;;;;;;7.95;3.10;;;0.70;77.20;;;;;;5096708;28;20023;-78
2022/03/05 07:18:47;;;;;;;4.53;2.60;;;0.70;76.70;;;;;;5113612;28;20027;-79
2022/03/05 07:21:13;;;;;;;6.53;3.25;;;0.60;76.80;;;;;;5115327;28;20028;-83
2022/03/05 07:23:51;;;;;;;4.70;3.15;;;0.50;76.80;;;;;;5118226;28;20019;-79
2022/03/05 07:26:18;;;;;;;4.15;3.13;;;0.50;77.00;;;;;;5120829;28;20076;-77
2022/03/05 07:28:45;;;;;;;10.07;2.95;;;0.50;77.10;;;;;;5120112;28;20088;-78
2022/03/05 07:31:11;;;;;;;4.40;1.70;;;0.60;77.30;;;;;;5121002;28;20034;-78
2022/03/05 07:33:37;;;;;;;7.53;3.08;;;0.80;76.70;;;;;;5101699;28;20197;-77
2022/03/05 07:36:06;;;;;;;4.28;2.75;;;1.00;75.70;;;;;;5102294;28;20460;-77
2022/03/05 07:38:35;;;;;;;8.18;3.20;;;1.20;75.20;;;;;;5120031;28;20035;-76
2022/03/05 07:41:01;;;;;;;5.82;2.95;;;1.40;74.30;;;;;;5123047;28;20481;-77
2022/03/05 07:43:27;;;;;;;3.60;2.70;;;1.70;73.50;;;;;;5122446;28;20050;-76
2022/03/05 07:45:53;;;;;;;6.95;3.22;;;2.40;72.50;;;;;;5122396;28;20023;-78
2022/03/05 07:48:20;;;;;;;7.03;3.30;;;3.30;71.10;;;;;;5120037;28;20081;-77
2022/03/05 07:50:48;;;;;;;9.82;2.92;;;4.50;68.80;;;;;;5119357;28;20475;-78
2022/03/05 07:53:17;;;;;;;11.13;2.95;;;4.90;63.70;;;;;;5120550;28;20036;-77
2022/03/05 07:56:01;;;;;;;5.28;2.50;;;4.60;62.50;;;;;;5120641;28;20066;-77
2022/03/05 07:58:27;;;;;;;5.60;3.72;;;4.30;63.20;;;;;;5121032;28;20084;-77
2022/03/05 08:00:52;;;;;;;6.20;2.97;;;3.70;63.30;;;;;;5119826;28;20032;-77
2022/03/05 08:03:19;;;;;;;5.82;3.00;;;3.70;64.60;;;;;;5118611;28;20027;-78
2022/03/05 08:05:45;;;;;;;5.00;3.03;;;3.40;64.00;;;;;;5119270;28;20511;-78
2022/03/05 08:08:11;;;;;;;5.95;3.30;;;3.20;64.50;;;;;;5117155;28;20028;-76
2022/03/05 08:10:37;;;;;;;7.85;3.05;;;3.20;65.70;;;;;;5119296;28;20027;-77
2022/03/05 08:13:03;;;;;;;6.93;3.13;;;3.80;64.80;;;;;;5118551;28;20048;-79
2022/03/05 08:15:29;;;;;;;5.25;2.80;;;4.00;62.40;;;;;;5118417;28;20080;-81
2022/03/05 08:17:57;;;;;;;5.20;2.20;;;4.20;62.80;;;;;;5121949;28;20101;-81
2022/03/05 08:20:25;;;;;;;5.75;2.78;;;4.00;61.10;;;;;;5124586;28;20020;-79
2022/03/05 08:22:52;;;;;;;4.35;2.13;;;4.10;62.50;;;;;;5095634;28;20031;-77
2022/03/05 08:25:18;;;;;;;4.25;2.80;;;4.00;61.00;;;;;;5119079;28;20479;-78
2022/03/05 08:27:44;;;;;;;5.25;3.00;;;3.50;61.70;;;;;;5116125;28;20047;-78
2022/03/05 08:30:10;;;;;;;5.38;3.08;;;3.10;63.00;;;;;;5115635;28;20383;-79
2022/03/05 08:32:37;;;;;;;9.37;3.13;;;2.70;63.90;;;;;;5096219;28;20422;-78
2022/03/05 08:35:04;;;;;;;8.75;3.05;;;2.40;65.00;;;;;;5096830;28;20084;-79
2022/03/05 08:37:32;;;;;;;6.43;3.63;;;2.20;66.00;;;;;;5115237;28;20032;-78
2022/03/05 08:39:58;;;;;;;5.68;2.50;;;2.10;66.60;;;;;;5114178;28;20108;-79
2022/03/05 08:42:24;;;;;;;7.45;3.40;;;2.10;66.90;;;;;;5096279;28;20057;-79
2022/03/05 08:44:50;;;;;;;3.95;2.67;;;1.90;67.20;;;;;;5115516;28;20038;-81
2022/03/05 08:47:16;;;;;;;4.50;2.67;;;1.80;67.70;;;;;;5114788;28;20394;-78
2022/03/05 08:49:42;;;;;;;5.20;3.33;;;1.50;68.30;;;;;;5115058;28;20507;-79
2022/03/05 08:52:08;;;;;;;5.97;2.70;;;1.40;69.50;;;;;;5114365;28;20045;-78
2022/03/05 08:54:35;;;;;;;6.18;2.83;;;1.40;69.60;;;;;;5096346;28;20031;-78
2022/03/05 08:57:01;;;;;;;6.70;3.15;;;1.60;69.70;;;;;;5108903;28;20020;-78
2022/03/05 08:59:26;;;;;;;6.00;3.30;;;1.90;68.80;;;;;;5114859;28;20095;-80
2022/03/05 09:01:53;;;;;;;4.55;3.65;;;2.20;67.60;;;;;;5115119;28;20488;-79
2022/03/05 09:04:18;;;;;;;4.72;2.72;;;2.20;67.20;;;;;;5115005;28;20072;-78
2022/03/05 09:06:47;;;;;;;6.63;3.58;;;2.20;67.10;;;;;;5096512;28;20458;-79
2022/03/05 09:09:13;;;;;;;7.35;3.00;;;2.20;67.00;;;;;;5096443;28;20551;-78
2022/03/05 09:11:39;;;;;;;5.35;3.25;;;2.20;67.20;;;;;;5115154;28;20349;-79
2022/03/05 09:14:06;;;;;;;5.32;3.60;;;2.20;66.90;;;;;;5114616;28;20039;-80
2022/03/05 09:16:38;;;;;;;3.10;2.35;;;2.10;66.50;;;;;;5116119;28;20115;-79
2022/03/05 09:19:04;;;;;;;9.65;3.22;;;1.90;66.90;;;;;;5114322;28;20035;-78
2022/03/05 09:21:31;;;;;;;8.60;4.47;;;1.80;67.30;;;;;;5102727;28;20051;-77
2022/03/05 09:23:57;;;;;;;8.25;3.15;;;1.80;68.10;;;;;;5094027;28;20024;-78
2022/03/05 09:26:23;;;;;;;5.18;2.83;;;1.80;67.80;;;;;;5075750;28;20469;-79
2022/03/05 09:28:50;;;;;;;4.50;2.17;;;1.60;67.90;;;;;;5093854;28;20035;-75
2022/03/05 09:31:16;;;;;;;6.35;3.53;;;1.60;67.90;;;;;;5093678;28;20016;-79
2022/03/05 09:33:42;;;;;;;7.00;3.10;;;1.50;68.40;;;;;;5075539;28;20043;-77
2022/03/05 09:36:12;;;;;;;5.50;3.08;;;1.50;68.40;;;;;;5093636;28;20024;-79
2022/03/05 09:38:38;;;;;;;4.80;2.00;;;1.50;68.40;;;;;;5102547;28;20080;-78
2022/03/05 09:41:05;;;;;;;4.38;2.40;;;1.50;68.10;;;;;;5113144;28;20024;-76
2022/03/05 09:43:31;;;;;;;;;;;1.40;68.20;;;;;;5096847;28;20030;-78
2022/03/05 09:45:58;;;;;;;5.18;2.88;;;1.40;67.80;;;;;;5113272;28;19903;-77
2022/03/05 09:48:26;;;;;;;4.35;2.75;;;1.30;68.40;;;;;;5113137;28;20032;-78
2022/03/05 09:50:52;;;;;;;7.45;2.33;;;1.30;68.50;;;;;;5113341;28;20026;-78
2022/03/05 09:53:21;;;;;;;3.92;2.35;;;1.30;68.60;;;;;;5092293;28;20028;-77
2022/03/05 09:55:49;;;;;;;7.88;2.75;;;1.30;68.70;;;;;;5113397;28;20023;-81
2022/03/05 09:58:15;;;;;;;5.57;2.90;;;1.40;68.40;;;;;;5113192;28;20035;-78
2022/03/05 10:00:41;;;;;;;6.03;2.80;;;1.50;68.20;;;;;;5109949;28;20408;-76
2022/03/05 10:03:11;;;;;;;6.93;2.40;;;1.60;68.20;;;;;;5112678;28;20014;-81
2022/03/05 10:05:37;;;;;;;4.38;2.83;;;1.70;67.30;;;;;;5113122;28;20081;-78
2022/03/05 10:08:12;;;;;;;3.63;2.28;;;1.60;67.00;;;;;;5108380;28;20027;-78
2022/03/05 10:10:50;;;;;;;8.63;2.28;;;1.60;66.80;;;;;;5112635;28;20019;-80
2022/03/05 10:13:25;;;;;;;5.00;2.72;;;1.60;66.60;;;;;;5112513;28;20047;-79
2022/03/05 10:15:54;;;;;;;7.28;3.72;;;1.50;66.90;;;;;;5094510;28;20107;-78
2022/03/05 10:18:46;;;;;;;7.25;2.75;;;1.50;67.20;;;;;;5113023;28;20095;-78
2022/03/05 10:21:12;;;;;;;10.93;3.15;;;1.60;67.90;;;;;;5092176;28;20031;-80
2022/03/05 10:23:42;;;;;;;7.13;2.58;;;1.60;67.70;;;;;;5090818;28;20051;-77
2022/03/05 10:26:09;;;;;;;3.88;1.98;;;1.80;67.50;;;;;;5093532;28;20027;-78
2022/03/05 10:28:37;;;;;;;;;;;1.90;66.80;;;;;;5093971;28;20369;-78
2022/03/05 10:31:12;;;;;;;;;;;1.90;66.70;;;;;;5086818;28;19916;-78
2022/03/05 10:33:43;;;;;;;5.05;3.17;;;1.80;66.40;;;;;;5117341;28;19915;-78
2022/03/05 10:36:23;;;;;;;6.25;3.35;;;1.70;67.30;;;;;;5115578;28;20023;-79
2022/03/05 10:38:51;;;;;;;3.42;2.63;;;1.60;67.80;;;;;;5095811;28;20488;-78
2022/03/05 10:41:20;;;;;;;4.65;3.20;;;1.50;68.00;;;;;;5109558;28;20039;-80
2022/03/05 10:44:17;;;;;;;4.28;2.70;;;1.50;68.20;;;;;;5114160;28;20086;-80
2022/03/05 10:46:48;;;;;;;8.45;3.20;;;1.50;68.10;;;;;;5088125;28;20043;-77
2022/03/05 10:49:28;;;;;;;2.42;1.80;;;1.40;68.70;;;;;;5111887;28;20042;-77
2022/03/05 10:52:00;;;;;;;3.75;2.50;;;1.50;68.60;;;;;;5110472;28;20036;-77
2022/03/05 10:54:28;;;;;;;5.22;2.90;;;1.50;68.40;;;;;;5111987;28;20067;-76
2022/03/05 10:56:56;;;;;;;5.55;2.53;;;1.50;68.20;;;;;;5112336;28;20059;-78
2022/03/05 10:59:22;;;;;;;2.05;1.75;;;1.60;68.00;;;;;;5112535;28;20104;-78
2022/03/05 11:01:49;;;;;;;7.68;3.55;;;1.60;67.60;;;;;;5112461;28;20044;-81
2022/03/05 11:04:15;;;;;;;11.10;3.22;;;1.60;67.80;;;;;;5112273;28;20031;-79
2022/03/05 11:06:43;;;;;;;5.85;3.22;;;1.80;67.90;;;;;;5111800;28;20030;-77
2022/03/05 11:09:13;;;;;;;5.55;3.33;;;2.00;67.70;;;;;;5095065;28;20049;-82
2022/03/05 11:11:41;;;;;;;4.90;3.03;;;2.10;67.40;;;;;;5095295;28;20072;-81
2022/03/05 11:14:11;;;;;;;7.03;3.38;;;2.00;67.40;;;;;;5103332;28;20114;-80
2022/03/05 11:16:37;;;;;;;5.60;3.00;;;2.00;67.50;;;;;;5112440;28;20020;-78
2022/03/05 11:19:03;;;;;;;7.05;3.90;;;2.00;67.50;;;;;;5112500;28;20579;-78
2022/03/05 11:21:29;;;;;;;6.78;3.33;;;2.10;67.60;;;;;;5107918;28;20027;-78
2022/03/05 11:23:57;;;;;;;5.68;3.30;;;2.00;67.60;;;;;;5101163;28;20122;-79
2022/03/05 11:26:23;;;;;;;5.97;3.35;;;1.90;67.80;;;;;;5112636;28;20376;-81
2022/03/05 11:28:50;;;;;;;5.00;2.50;;;1.60;68.50;;;;;;5112544;28;20445;-78
2022/03/05 11:31:33;;;;;;;3.90;2.65;;;1.60;68.50;;;;;;5094177;28;20545;-78
2022/03/05 11:34:15;;;;;;;4.55;3.03;;;1.60;68.90;;;;;;5112538;28;20392;-80
2022/03/05 11:36:42;;;;;;;6.85;3.10;;;1.50;68.90;;;;;;5112282;28;20024;-79
2022/03/05 11:39:26;;;;;;;3.72;2.40;;;1.40;69.20;;;;;;5109956;28;20026;-80
2022/03/05 11:42:03;;;;;;;5.30;2.90;;;1.40;69.30;;;;;;5104605;28;20023;-78
2022/03/05 11:44:44;;;;;;;4.13;2.30;;;1.30;69.50;;;;;;5107611;28;20365;-80
2022/03/05 11:47:18;;;;;;;7.85;3.10;;;1.20;69.90;;;;;;5110308;28;20035;-80
2022/03/05 11:49:59;;;;;;;3.88;2.92;;;1.10;70.50;;;;;;5112365;28;20020;-77
2022/03/05 11:52:53;;;;;;;4.72;2.97;;;1.20;70.80;;;;;;5112657;28;20031;-77
2022/03/05 11:55:22;;;;;;;6.72;2.97;;;1.20;71.10;;;;;;5096803;28;20051;-78
2022/03/05 11:57:51;;;;;;;4.82;2.78;;;1.20;70.60;;;;;;5091476;28;20111;-79
2022/03/05 12:00:26;;;;;;;4.75;2.42;;;1.20;70.90;;;;;;5092836;28;20035;-78
2022/03/05 12:02:58;;;;;;;7.60;2.88;;;1.20;71.00;;;;;;5106701;28;20027;-78
2022/03/05 12:05:41;;;;;;;4.50;2.22;;;1.10;70.80;;;;;;5113106;28;20035;-80
2022/03/05 12:08:09;;;;;;;7.88;3.10;;;1.10;71.00;;;;;;5106127;28;20028;-80
2022/03/05 12:10:38;;;;;;;5.70;2.15;;;1.20;70.90;;;;;;5112716;28;20028;-78
2022/03/05 12:13:06;;;;;;;9.52;3.47;;;1.20;71.00;;;;;;5100947;28;20046;-79
2022/03/05 12:15:38;;;;;;;5.85;2.92;;;1.10;71.10;;;;;;5115742;28;20137;-78
2022/03/05 12:18:05;;;;;;;5.65;2.88;;;1.10;71.20;;;;;;5115551;28;20027;-80
2022/03/05 12:20:34;;;;;;;4.57;3.88;;;1.20;71.50;;;;;;5115845;28;20024;-76
2022/03/05 12:23:04;;;;;;;4.72;2.55;;;1.30;71.60;;;;;;5097791;28;20534;-77
2022/03/05 12:25:41;;;;;;;7.38;2.47;;;1.40;71.10;;;;;;5114778;28;20153;-76
2022/03/05 12:28:14;;;;;;;5.03;2.97;;;1.40;71.00;;;;;;5110684;28;20027;-76
2022/03/05 12:30:40;;;;;;;5.30;2.40;;;1.50;70.30;;;;;;5115314;28;20032;-76
2022/03/05 12:33:10;;;;;;;5.22;2.33;;;1.60;69.30;;;;;;5114713;28;20019;-77
2022/03/05 12:35:37;;;;;;;2.97;2.13;;;1.50;69.00;;;;;;5114576;28;20024;-76
2022/03/05 12:38:04;;;;;;;4.70;2.45;;;1.50;68.70;;;;;;5096795;28;20568;-76
2022/03/05 12:40:31;;;;;;;6.70;2.33;;;1.50;69.20;;;;;;5115204;28;20028;-77
2022/03/05 12:43:00;;;;;;;5.43;1.80;;;1.40;68.90;;;;;;5115835;28;20019;-77
2022/03/05 12:45:27;;;;;;;5.88;2.75;;;1.40;68.30;;;;;;5110010;28;20077;-75
2022/03/05 12:47:58;;;;;;;6.15;3.03;;;1.40;68.30;;;;;;5116261;28;20049;-77
2022/03/05 12:50:30;;;;;;;5.75;2.80;;;1.40;68.40;;;;;;5117466;28;20036;-81
2022/03/05 12:53:09;;;;;;;6.82;3.15;;;1.30;68.80;;;;;;5117013;28;20020;-79
2022/03/05 12:55:56;;;;;;;3.67;2.42;;;1.30;69.50;;;;;;5117009;28;20031;-79
2022/03/05 12:58:27;;;;;;;5.00;2.60;;;1.20;70.00;;;;;;5116225;28;20484;-77
2022/03/05 13:00:56;;;;;;;6.95;3.45;;;1.10;70.20;;;;;;5107229;28;20095;-80